Time;durP1;ratioP1;P1;durP2;ratioP2;P2;SDS_P1;SDS_P2;PMS_P1;PMS_P2;Temp;Humidity;BMP_temperature;BMP_pressure;BME280_temperature;BME280_humidity;BME280_pressure;Samples;Min_cycle;Max_cycle;Signal;HPM_P1;HPM_P2
2021/03/13 06:39:38;;;;;;;13.15;1.65;;;16.00;58.10;;;;;;5394221;22;20140;-74
2021/03/13 06:42:28;;;;;;;7.32;1.20;;;15.20;58.80;;;;;;5091928;28;20063;-77
2021/03/13 06:44:58;;;;;;;5.00;1.05;;;15.10;59.00;;;;;;5109779;28;20034;-79
2021/03/13 06:47:38;;;;;;;5.03;0.80;;;15.00;59.50;;;;;;5099950;28;20064;-78
2021/03/13 06:50:26;;;;;;;3.20;1.20;;;15.00;59.30;;;;;;5091109;28;20081;-80
2021/03/13 06:53:08;;;;;;;9.02;4.15;;;15.00;59.60;;;;;;5071286;28;20017;-78
2021/03/13 06:55:35;;;;;;;6.25;1.20;;;15.00;59.50;;;;;;5078718;28;20489;-72
2021/03/13 06:58:09;;;;;;;9.55;1.40;;;15.00;59.60;;;;;;5071183;28;20039;-72
2021/03/13 07:00:37;;;;;;;9.43;2.03;;;15.10;59.50;;;;;;5072447;28;20467;-72
2021/03/13 07:05:36;;;;;;;3.35;1.20;;;15.30;59.10;;;;;;5059038;28;20050;-75
2021/03/13 07:08:24;;;;;;;7.18;1.33;;;15.40;59.00;;;;;;5059632;28;20024;-75
2021/03/13 07:11:11;;;;;;;10.35;1.27;;;15.40;58.50;;;;;;5058683;28;20087;-76
2021/03/13 07:13:39;;;;;;;4.55;1.15;;;15.50;58.20;;;;;;5059356;28;20443;-74
2021/03/13 07:16:29;;;;;;;6.18;1.63;;;15.60;58.00;;;;;;5060230;28;20102;-72
2021/03/13 07:19:02;;;;;;;11.15;5.75;;;15.80;57.60;;;;;;5049123;28;20048;-72
2021/03/13 07:21:29;;;;;;;6.68;3.08;;;15.90;57.50;;;;;;5058990;28;20024;-72
2021/03/13 07:24:05;;;;;;;6.32;3.20;;;16.00;57.20;;;;;;5055138;28;20036;-74
2021/03/13 07:26:48;;;;;;;9.00;4.35;;;16.20;56.80;;;;;;5051415;28;20416;-72
2021/03/13 07:29:18;;;;;;;5.22;3.30;;;16.40;56.60;;;;;;5049056;28;20387;-72
2021/03/13 07:31:51;;;;;;;7.63;2.85;;;16.50;56.40;;;;;;5062683;28;20079;-72
2021/03/13 07:34:19;;;;;;;8.95;2.78;;;16.70;55.80;;;;;;5059572;28;20129;-74
2021/03/13 07:36:51;;;;;;;6.90;3.00;;;16.80;55.70;;;;;;5048821;28;20108;-71
2021/03/13 07:39:21;;;;;;;6.85;2.40;;;16.90;55.60;;;;;;5062567;28;20033;-74
2021/03/13 07:41:58;;;;;;;7.03;2.22;;;17.00;55.20;;;;;;5064579;28;20017;-76
2021/03/13 07:44:24;;;;;;;25.13;3.70;;;17.20;55.00;;;;;;5068666;28;20070;-72
2021/03/13 07:46:50;;;;;;;11.13;2.65;;;17.20;54.90;;;;;;5068554;28;20414;-63
2021/03/13 07:49:17;;;;;;;6.55;2.22;;;17.20;55.00;;;;;;5057843;28;20082;-64
2021/03/13 07:51:45;;;;;;;7.20;2.20;;;17.30;55.00;;;;;;5051373;28;20025;-64
2021/03/13 07:54:13;;;;;;;4.60;1.80;;;17.20;55.10;;;;;;5038185;28;20029;-63
2021/03/13 07:56:41;;;;;;;5.80;1.98;;;17.20;55.10;;;;;;5046076;28;20029;-69
2021/03/13 07:59:34;;;;;;;4.93;1.80;;;17.20;55.40;;;;;;5034963;28;20492;-71
2021/03/13 08:02:00;;;;;;;9.18;2.10;;;17.20;55.40;;;;;;5051207;28;20033;-62
2021/03/13 08:04:38;;;;;;;8.63;2.30;;;17.20;55.40;;;;;;5051237;28;20116;-64
2021/03/13 08:07:07;;;;;;;19.83;2.60;;;17.20;55.60;;;;;;5036331;28;20152;-70
2021/03/13 08:09:32;;;;;;;17.77;2.63;;;17.30;56.10;;;;;;5044983;28;20036;-73
2021/03/13 08:12:04;;;;;;;24.95;3.03;;;17.30;55.80;;;;;;5031569;28;20407;-77
2021/03/13 08:14:34;;;;;;;130.10;95.13;;;17.30;55.80;;;;;;5040328;28;20029;-73
2021/03/13 08:17:11;;;;;;;70.60;45.92;;;17.20;55.90;;;;;;5069618;28;20025;-78
2021/03/13 08:19:42;;;;;;;41.47;28.42;;;17.10;55.80;;;;;;5028283;28;20091;-72
2021/03/13 08:22:14;;;;;;;36.03;20.50;;;17.20;56.20;;;;;;5050550;28;20067;-72
2021/03/13 08:25:26;;;;;;;20.60;12.60;;;17.10;55.60;;;;;;5096215;27;723242;-79
2021/03/13 08:27:52;;;;;;;46.75;20.65;;;17.30;56.70;;;;;;5103766;28;20110;-80
2021/03/13 08:30:22;;;;;;;90.30;69.43;;;17.40;56.80;;;;;;5108738;28;20059;-76
2021/03/13 08:33:01;;;;;;;75.78;44.25;;;17.50;56.40;;;;;;5117020;28;20496;-80
2021/03/13 08:35:34;;;;;;;437.63;293.85;;;17.60;57.10;;;;;;5097661;28;20096;-73
2021/03/13 08:38:00;;;;;;;690.17;472.58;;;17.70;54.40;;;;;;5090887;28;20028;-71
2021/03/13 08:40:28;;;;;;;520.20;338.67;;;17.70;54.90;;;;;;5104202;28;20031;-75
2021/03/13 08:42:54;;;;;;;371.33;217.40;;;17.80;56.00;;;;;;5098472;28;20039;-72
2021/03/13 08:45:20;;;;;;;316.50;190.80;;;17.90;55.50;;;;;;5107475;28;20035;-73
2021/03/13 08:47:54;;;;;;;342.42;202.38;;;17.90;55.20;;;;;;5097113;28;20051;-73
2021/03/13 08:50:48;;;;;;;285.05;170.88;;;18.00;55.00;;;;;;5089526;28;20023;-77
2021/03/13 08:53:35;;;;;;;253.10;147.25;;;18.00;54.30;;;;;;5091613;28;20345;-71
2021/03/13 08:56:24;;;;;;;221.38;133.35;;;18.20;54.10;;;;;;5107958;28;20042;-70
2021/03/13 08:58:50;;;;;;;201.75;119.50;;;18.20;53.70;;;;;;5091791;28;20059;-74
2021/03/13 09:01:21;;;;;;;174.52;107.90;;;18.10;54.30;;;;;;5090762;28;20472;-78
2021/03/13 09:03:50;;;;;;;177.77;105.57;;;18.10;53.90;;;;;;5106380;28;20024;-75
2021/03/13 09:06:21;;;;;;;155.88;94.60;;;18.10;54.00;;;;;;5088047;28;20386;-72
2021/03/13 09:08:47;;;;;;;129.53;79.30;;;18.10;53.70;;;;;;5088129;28;20027;-77
2021/03/13 09:11:25;;;;;;;123.80;74.38;;;18.00;54.10;;;;;;5103297;28;20039;-78
2021/03/13 09:14:01;;;;;;;113.57;66.88;;;17.90;54.80;;;;;;5109525;28;20060;-74
2021/03/13 09:16:33;;;;;;;98.18;59.13;;;17.80;54.30;;;;;;5094821;28;20127;-76
2021/03/13 09:18:58;;;;;;;;;;;17.80;54.60;;;;;;5090535;28;20021;-75
2021/03/13 09:21:51;;;;;;;86.00;49.08;;;17.90;54.60;;;;;;5105169;28;19911;-75
2021/03/13 09:24:20;;;;;;;76.57;48.03;;;17.80;54.70;;;;;;5092308;28;20039;-78
2021/03/13 09:26:58;;;;;;;80.95;51.95;;;17.80;54.50;;;;;;5101337;28;20028;-75
2021/03/13 09:29:32;;;;;;;67.03;41.45;;;17.80;54.60;;;;;;5091789;28;20085;-74
2021/03/13 09:32:18;;;;;;;62.88;37.67;;;17.80;54.50;;;;;;5087618;28;20478;-76
2021/03/13 09:34:46;;;;;;;61.83;34.72;;;17.70;54.70;;;;;;5103703;28;20031;-74
2021/03/13 09:37:22;;;;;;;66.47;40.90;;;17.70;54.60;;;;;;5094139;28;20061;-73
2021/03/13 09:40:13;;;;;;;59.05;35.05;;;17.80;54.70;;;;;;5099957;28;20008;-81
2021/03/13 09:42:44;;;;;;;60.00;33.63;;;17.80;54.60;;;;;;5095652;28;20097;-79
2021/03/13 09:45:12;;;;;;;68.60;36.97;;;17.80;54.90;;;;;;5095953;28;20470;-74
2021/03/13 09:47:45;;;;;;;67.28;36.90;;;17.90;54.90;;;;;;5097899;28;20016;-79
2021/03/13 09:50:25;;;;;;;67.00;34.92;;;17.90;55.10;;;;;;5095874;28;20027;-71
2021/03/13 09:52:51;;;;;;;67.88;30.25;;;18.00;54.90;;;;;;5095621;28;20566;-73
2021/03/13 09:55:25;;;;;;;57.00;32.55;;;18.00;55.60;;;;;;5083901;28;20029;-75
2021/03/13 09:57:53;;;;;;;60.75;32.35;;;17.90;55.40;;;;;;5074253;28;20017;-75
2021/03/13 10:00:39;;;;;;;132.13;94.63;;;17.60;55.40;;;;;;5073597;28;20025;-74
2021/03/13 10:03:13;;;;;;;90.38;60.92;;;17.60;55.80;;;;;;5073908;28;20040;-75
2021/03/13 10:05:39;;;;;;;94.05;68.47;;;17.50;55.80;;;;;;5075168;28;20104;-74
2021/03/13 10:08:13;;;;;;;94.72;69.30;;;17.50;55.70;;;;;;5073974;28;20025;-75
2021/03/13 10:10:43;;;;;;;90.43;64.95;;;17.50;55.60;;;;;;5075044;28;20024;-76
2021/03/13 10:13:11;;;;;;;96.75;71.95;;;17.50;55.80;;;;;;5075313;28;20021;-74
2021/03/13 10:15:38;;;;;;;131.10;96.50;;;17.50;55.60;;;;;;5074969;28;20459;-75
2021/03/13 10:18:16;;;;;;;128.48;95.57;;;17.50;55.60;;;;;;5073733;28;20036;-75
2021/03/13 10:20:45;;;;;;;100.78;75.20;;;17.40;55.50;;;;;;5075268;28;20020;-75
2021/03/13 10:23:21;;;;;;;106.95;77.40;;;17.40;55.70;;;;;;5073632;28;20439;-75
2021/03/13 10:26:15;;;;;;;108.72;81.72;;;17.30;55.70;;;;;;5074779;28;20017;-76
2021/03/13 10:28:48;;;;;;;77.40;56.40;;;17.30;56.00;;;;;;5073587;28;20029;-75
2021/03/13 10:31:19;;;;;;;86.22;63.50;;;17.30;56.00;;;;;;5073379;28;20021;-74
2021/03/13 10:33:45;;;;;;;80.77;56.77;;;17.30;55.70;;;;;;5074780;28;20028;-74
2021/03/13 10:36:13;;;;;;;73.95;54.50;;;17.30;55.70;;;;;;5073644;28;20125;-75
2021/03/13 10:38:50;;;;;;;68.82;48.97;;;17.30;55.60;;;;;;5074693;28;20024;-74
2021/03/13 10:41:20;;;;;;;60.45;44.20;;;17.30;55.70;;;;;;5056430;28;20475;-74
2021/03/13 10:43:46;;;;;;;53.17;40.72;;;17.50;55.30;;;;;;5056733;28;20035;-76
2021/03/13 10:46:25;;;;;;;56.25;41.35;;;17.60;55.00;;;;;;5072726;28;20028;-74
2021/03/13 10:48:54;;;;;;;46.58;35.88;;;17.60;54.80;;;;;;5072676;28;20020;-73
2021/03/13 10:51:19;;;;;;;51.47;36.67;;;17.70;54.40;;;;;;5072756;28;20457;-74
2021/03/13 10:53:45;;;;;;;49.90;37.78;;;17.70;54.40;;;;;;5074231;28;20103;-75
2021/03/13 10:56:12;;;;;;;45.45;32.53;;;17.60;54.30;;;;;;5074138;28;20375;-75
2021/03/13 10:59:00;;;;;;;43.17;33.53;;;17.50;54.70;;;;;;5074221;28;20024;-75
2021/03/13 11:01:26;;;;;;;40.75;30.83;;;17.40;54.30;;;;;;5072727;28;20024;-75
2021/03/13 11:03:54;;;;;;;40.00;29.33;;;17.30;54.50;;;;;;5074087;28;20379;-75
2021/03/13 11:06:33;;;;;;;43.25;30.17;;;17.30;54.70;;;;;;5074305;28;20025;-75
2021/03/13 11:09:04;;;;;;;37.55;26.17;;;17.30;55.10;;;;;;5074057;28;20100;-75
2021/03/13 11:11:30;;;;;;;39.35;28.63;;;17.20;55.00;;;;;;5072715;28;20024;-76
2021/03/13 11:13:56;;;;;;;37.88;28.05;;;17.10;55.50;;;;;;5072634;28;20039;-76
2021/03/13 11:16:23;;;;;;;35.08;26.30;;;17.10;55.50;;;;;;5072616;28;20434;-76
2021/03/13 11:18:53;;;;;;;41.50;29.98;;;17.10;55.20;;;;;;5073262;28;20028;-75
2021/03/13 11:21:24;;;;;;;35.05;22.65;;;17.10;55.20;;;;;;5087111;28;20020;-78
2021/03/13 11:23:51;;;;;;;31.08;21.45;;;17.00;55.30;;;;;;5075764;28;20564;-76
2021/03/13 11:26:18;;;;;;;35.63;20.00;;;17.00;54.90;;;;;;5094310;28;20063;-75
2021/03/13 11:28:43;;;;;;;32.67;21.52;;;17.10;55.00;;;;;;5093591;28;20059;-73
2021/03/13 11:31:11;;;;;;;74.55;27.38;;;17.10;54.70;;;;;;5092934;28;20063;-73
2021/03/13 11:33:36;;;;;;;108.82;45.90;;;17.20;54.30;;;;;;5091990;28;20031;-72
2021/03/13 11:36:03;;;;;;;79.68;35.03;;;17.10;54.70;;;;;;5093163;28;20020;-71
2021/03/13 11:38:30;;;;;;;118.10;72.60;;;17.10;54.70;;;;;;5091600;28;20016;-72
2021/03/13 11:40:56;;;;;;;73.85;43.83;;;17.10;54.90;;;;;;5092787;28;20020;-73
2021/03/13 11:43:23;;;;;;;86.32;43.67;;;17.10;55.60;;;;;;5087823;28;20111;-73
2021/03/13 11:45:49;;;;;;;94.20;43.88;;;17.30;55.30;;;;;;5092292;28;20467;-73
2021/03/13 11:48:17;;;;;;;83.30;43.67;;;17.40;54.70;;;;;;5087807;28;20076;-74
2021/03/13 11:50:43;;;;;;;82.90;42.45;;;17.60;54.10;;;;;;5081946;28;20531;-72
2021/03/13 11:53:09;;;;;;;82.45;40.15;;;17.80;53.80;;;;;;5090675;28;20042;-72
2021/03/13 11:55:35;;;;;;;82.50;36.72;;;17.90;53.70;;;;;;5090391;28;20481;-74
2021/03/13 11:58:01;;;;;;;71.38;31.73;;;17.80;54.40;;;;;;5092313;28;20055;-73
2021/03/13 12:00:27;;;;;;;70.47;33.63;;;17.80;54.10;;;;;;5091084;28;20379;-74
2021/03/13 12:02:52;;;;;;;73.78;34.53;;;17.70;54.70;;;;;;5092208;28;20421;-72
2021/03/13 12:05:18;;;;;;;63.42;33.00;;;17.90;54.40;;;;;;5092022;28;20164;-78
2021/03/13 12:07:44;;;;;;;59.28;33.92;;;18.30;53.30;;;;;;5091868;28;20062;-76
2021/03/13 12:10:10;;;;;;;64.15;32.20;;;18.50;52.70;;;;;;5086700;28;20024;-74
2021/03/13 12:12:37;;;;;;;55.05;26.95;;;18.70;52.80;;;;;;5091868;28;20020;-74
2021/03/13 12:15:07;;;;;;;52.65;27.52;;;18.90;52.10;;;;;;5092316;28;20386;-72
2021/03/13 12:17:34;;;;;;;53.70;27.67;;;18.90;52.20;;;;;;5090740;28;20111;-74
2021/03/13 12:20:00;;;;;;;53.63;28.65;;;18.90;51.90;;;;;;5090474;28;20072;-75
2021/03/13 12:22:26;;;;;;;48.00;25.02;;;19.00;52.00;;;;;;5092086;28;20099;-76
2021/03/13 12:24:53;;;;;;;26.70;14.30;;;19.10;51.90;;;;;;5090748;28;20076;-76
2021/03/13 12:27:19;;;;;;;25.00;11.02;;;18.90;49.60;;;;;;5092302;28;20143;-75
2021/03/13 12:29:45;;;;;;;42.80;20.98;;;18.80;51.40;;;;;;5092503;28;20105;-76
2021/03/13 12:32:13;;;;;;;31.40;17.55;;;18.80;51.20;;;;;;5091775;28;20171;-77
2021/03/13 12:34:39;;;;;;;40.80;23.23;;;18.70;52.20;;;;;;5093047;28;20047;-76
2021/03/13 12:37:05;;;;;;;45.00;28.40;;;18.80;52.30;;;;;;5092712;28;20051;-75
2021/03/13 12:39:30;;;;;;;43.60;28.35;;;18.90;52.00;;;;;;5092404;28;20035;-75
2021/03/13 12:41:57;;;;;;;42.90;26.55;;;18.80;52.00;;;;;;5083694;28;20033;-78
2021/03/13 12:44:23;;;;;;;135.60;106.93;;;18.60;52.20;;;;;;5080646;28;20532;-65
2021/03/13 12:46:49;;;;;;;57.38;43.40;;;18.40;50.80;;;;;;5091190;28;20063;-68
2021/03/13 12:49:15;;;;;;;50.00;33.25;;;17.80;48.90;;;;;;5079301;28;20020;-67
2021/03/13 12:51:42;;;;;;;77.30;61.53;;;17.60;51.10;;;;;;5092537;28;20024;-72
2021/03/13 12:54:08;;;;;;;470.23;399.15;;;17.90;51.10;;;;;;5093708;28;20024;-71
2021/03/13 12:56:34;;;;;;;307.42;243.48;;;18.40;49.80;;;;;;5101329;28;20041;-77
2021/03/13 12:59:02;;;;;;;190.60;142.45;;;18.70;48.60;;;;;;5310658;22;20153;-77
2021/03/13 13:01:51;;;;;;;216.48;163.30;;;18.40;50.90;;;;;;5017778;28;20027;-77
2021/03/13 13:04:17;;;;;;;194.05;142.52;;;18.30;51.40;;;;;;5014505;28;20026;-77
2021/03/13 13:06:47;;;;;;;201.85;156.32;;;18.20;52.00;;;;;;5004769;28;20013;-78
2021/03/13 13:09:12;;;;;;;160.48;122.68;;;18.10;52.30;;;;;;5012818;28;20010;-75
2021/03/13 13:11:38;;;;;;;119.70;89.45;;;18.10;53.10;;;;;;5004318;28;20099;-76
2021/03/13 13:14:05;;;;;;;96.45;75.07;;;18.20;53.20;;;;;;4996567;28;20026;-76
2021/03/13 13:16:31;;;;;;;89.55;61.15;;;18.10;52.80;;;;;;4996847;28;20026;-77
2021/03/13 13:18:57;;;;;;;100.65;73.78;;;18.10;53.20;;;;;;5001465;28;20053;-78
2021/03/13 13:21:22;;;;;;;76.00;51.63;;;18.00;53.30;;;;;;5007012;28;20401;-75
2021/03/13 13:23:52;;;;;;;67.93;46.60;;;18.00;52.90;;;;;;5003712;28;20057;-79
2021/03/13 13:26:24;;;;;;;83.53;60.80;;;18.10;53.00;;;;;;5022780;28;20019;-76
2021/03/13 13:28:49;;;;;;;79.60;59.47;;;18.10;53.20;;;;;;4997598;28;20109;-76
2021/03/13 13:31:15;;;;;;;89.03;65.60;;;18.20;53.10;;;;;;4997017;28;20403;-76
2021/03/13 13:33:41;;;;;;;79.25;56.72;;;18.20;53.00;;;;;;5005514;28;20021;-77
2021/03/13 13:36:19;;;;;;;79.07;56.38;;;18.30;53.10;;;;;;5006083;28;20026;-77
2021/03/13 13:38:46;;;;;;;64.18;44.05;;;18.30;53.50;;;;;;4991575;28;20014;-75
2021/03/13 13:43:47;;;;;;;71.15;50.50;;;18.20;53.30;;;;;;5095538;22;20065;-78
2021/03/13 13:48:48;;;;;;;71.82;54.75;;;18.20;53.80;;;;;;4584899;22;20313;-75
2021/03/13 13:51:14;;;;;;;100.20;74.47;;;18.20;53.40;;;;;;5051639;28;20408;-74
2021/03/13 13:53:39;;;;;;;71.25;52.10;;;18.30;52.60;;;;;;5054127;28;20088;-74
2021/03/13 13:56:06;;;;;;;68.32;52.63;;;18.10;52.20;;;;;;5052865;28;20033;-74
2021/03/13 13:58:31;;;;;;;72.90;50.50;;;18.20;52.50;;;;;;5054546;28;20460;-74
2021/03/13 14:00:59;;;;;;;74.47;52.15;;;18.20;52.60;;;;;;5036652;28;20113;-74
2021/03/13 14:03:25;;;;;;;70.25;50.35;;;18.20;52.80;;;;;;5054358;28;20491;-76
2021/03/13 14:05:52;;;;;;;74.88;49.80;;;18.20;52.90;;;;;;5033373;28;20128;-78
2021/03/13 14:08:18;;;;;;;60.97;48.20;;;18.30;53.20;;;;;;5068948;28;20029;-78
2021/03/13 14:10:54;;;;;;;64.07;48.08;;;18.30;53.20;;;;;;5072227;28;20046;-79
2021/03/13 14:13:19;;;;;;;60.00;45.03;;;18.40;53.10;;;;;;5138816;22;20068;-78
2021/03/13 14:15:45;;;;;;;57.63;45.70;;;18.50;53.30;;;;;;5186448;22;20381;-76
2021/03/13 14:18:11;;;;;;;56.83;42.55;;;18.40;53.00;;;;;;5036173;28;20025;-72
2021/03/13 14:20:37;;;;;;;45.03;34.55;;;18.40;53.20;;;;;;5051155;28;20025;-75
2021/03/13 14:23:03;;;;;;;38.63;29.05;;;18.30;53.30;;;;;;5042460;28;20530;-74
2021/03/13 14:25:30;;;;;;;38.42;26.83;;;18.30;53.30;;;;;;5031322;28;20075;-73
2021/03/13 14:27:55;;;;;;;38.80;30.20;;;18.30;53.00;;;;;;5051952;28;20028;-74
2021/03/13 14:30:21;;;;;;;39.13;31.88;;;18.30;53.20;;;;;;5035206;28;20022;-77
2021/03/13 14:32:47;;;;;;;43.35;33.60;;;18.20;53.70;;;;;;5036383;28;20044;-76
2021/03/13 14:35:18;;;;;;;41.70;34.45;;;18.20;53.50;;;;;;5035261;28;20030;-76
2021/03/13 14:37:53;;;;;;;44.45;35.90;;;18.20;53.90;;;;;;5029667;28;20085;-78
2021/03/13 14:40:21;;;;;;;44.53;39.80;;;18.20;54.00;;;;;;5319278;22;20102;-82
2021/03/13 14:43:00;;;;;;;41.00;35.30;;;18.10;53.80;;;;;;5057149;28;20040;-80
2021/03/13 14:45:37;;;;;;;40.85;36.33;;;18.40;53.90;;;;;;5036826;28;20029;-79
2021/03/13 14:48:09;;;;;;;42.03;36.85;;;18.40;54.40;;;;;;5038444;28;20093;-77
2021/03/13 14:50:35;;;;;;;29.30;20.08;;;18.10;53.90;;;;;;5042988;28;20033;-78
2021/03/13 14:53:12;;;;;;;36.28;32.33;;;18.30;53.70;;;;;;5042569;28;20105;-76
2021/03/13 14:55:38;;;;;;;26.13;18.55;;;18.30;54.10;;;;;;5039647;28;20027;-78
2021/03/13 15:00:38;;;;;;;31.45;25.10;;;18.50;53.80;;;;;;5017516;28;20046;-77
2021/03/13 15:03:04;;;;;;;34.35;25.77;;;18.50;54.00;;;;;;4997600;28;20372;-75
2021/03/13 15:05:30;;;;;;;32.08;25.55;;;18.50;53.80;;;;;;5010417;28;20495;-76
2021/03/13 15:34:17;;;;;;;27.42;20.58;;;18.30;54.40;;;;;;5550201;22;20270;-79
2021/03/13 15:36:44;;;;;;;27.70;20.08;;;18.20;54.40;;;;;;5030117;28;20040;-78
2021/03/13 15:39:10;;;;;;;27.23;20.70;;;18.30;54.30;;;;;;5018895;28;20082;-78
2021/03/13 15:41:38;;;;;;;86.22;58.55;;;18.20;54.30;;;;;;5015182;28;20030;-76
2021/03/13 15:44:20;;;;;;;376.77;283.10;;;18.20;54.50;;;;;;5049322;28;20021;-76
2021/03/13 15:46:47;;;;;;;598.92;481.75;;;18.10;54.70;;;;;;5049317;28;20026;-78
2021/03/13 15:49:16;;;;;;;363.73;264.83;;;18.10;54.70;;;;;;5033100;28;20024;-76
2021/03/13 15:51:53;;;;;;;335.70;249.88;;;18.00;54.80;;;;;;5036637;28;20139;-75
2021/03/13 15:54:21;;;;;;;224.73;158.98;;;18.00;54.90;;;;;;5034115;28;20030;-78
2021/03/13 15:56:48;;;;;;;327.42;239.35;;;17.90;54.90;;;;;;5051110;28;20021;-78
2021/03/13 15:59:15;;;;;;;264.83;190.43;;;17.90;55.10;;;;;;5046260;28;20040;-78
2021/03/13 16:01:41;;;;;;;345.02;252.32;;;17.90;55.10;;;;;;5043010;28;20067;-79
2021/03/13 16:04:07;;;;;;;447.83;349.02;;;18.00;55.10;;;;;;5040529;28;20211;-78
2021/03/13 16:06:33;;;;;;;332.13;243.07;;;18.00;55.20;;;;;;5041108;28;20036;-78
2021/03/13 16:09:04;;;;;;;533.30;436.67;;;17.80;55.20;;;;;;5042360;28;20026;-79
2021/03/13 16:11:30;;;;;;;428.88;330.63;;;17.80;55.50;;;;;;5046458;28;20069;-76
2021/03/13 16:13:57;;;;;;;396.27;301.58;;;17.70;55.30;;;;;;5050946;28;20087;-83
2021/03/13 16:16:29;;;;;;;444.92;339.70;;;17.80;55.40;;;;;;5020421;28;20029;-79
2021/03/13 16:18:57;;;;;;;583.10;448.17;;;17.80;55.50;;;;;;5011310;28;20091;-78
2021/03/13 16:21:23;;;;;;;839.47;588.30;;;17.80;55.50;;;;;;5029782;28;20061;-77
2021/03/13 16:23:48;;;;;;;665.28;535.40;;;17.70;55.70;;;;;;5028681;28;20477;-76
2021/03/13 16:26:14;;;;;;;671.85;543.08;;;17.60;55.80;;;;;;5012967;28;20029;-76
2021/03/13 16:28:40;;;;;;;730.08;605.28;;;17.60;55.80;;;;;;5013959;28;20481;-76
2021/03/13 16:31:06;;;;;;;861.58;687.13;;;17.60;55.90;;;;;;5013810;28;20022;-76
2021/03/13 16:33:38;;;;;;;908.20;705.20;;;17.60;56.00;;;;;;5013062;28;20099;-76
2021/03/13 16:36:06;;;;;;;788.60;631.00;;;17.50;55.90;;;;;;5027151;28;20041;-78
2021/03/13 16:38:33;;;;;;;597.10;483.70;;;17.50;56.00;;;;;;5015116;28;20026;-74
2021/03/13 16:41:00;;;;;;;518.55;413.45;;;17.50;56.20;;;;;;5012281;28;20028;-74
2021/03/13 16:43:26;;;;;;;460.30;353.77;;;17.50;56.70;;;;;;5012826;28;20033;-74
2021/03/13 16:45:53;;;;;;;873.33;671.03;;;17.50;56.20;;;;;;5014845;28;20080;-75
2021/03/13 16:48:19;;;;;;;884.83;688.80;;;17.40;56.20;;;;;;5035243;28;20029;-75
2021/03/13 16:50:45;;;;;;;847.88;667.42;;;17.50;56.40;;;;;;5035156;28;20536;-75
2021/03/13 16:53:16;;;;;;;630.88;510.15;;;17.40;56.30;;;;;;5035180;28;20053;-75
2021/03/13 16:55:43;;;;;;;854.25;675.05;;;17.40;56.30;;;;;;5035486;28;20464;-74
2021/03/13 16:58:10;;;;;;;988.15;748.35;;;17.40;56.40;;;;;;4999239;28;20033;-75
2021/03/13 17:00:36;;;;;;;863.55;694.17;;;17.40;56.50;;;;;;5016639;28;20022;-74
2021/03/13 17:03:02;;;;;;;748.15;623.22;;;17.30;56.50;;;;;;5016433;28;20037;-75
2021/03/13 17:05:28;;;;;;;1273.22;849.90;;;17.30;56.60;;;;;;4998994;28;20064;-75
2021/03/13 17:07:54;;;;;;;724.25;595.65;;;17.30;56.60;;;;;;5018843;28;20049;-76
2021/03/13 17:10:20;;;;;;;767.13;623.53;;;17.30;56.70;;;;;;5017087;28;20025;-75
2021/03/13 17:12:46;;;;;;;815.88;620.80;;;17.20;56.70;;;;;;5035163;28;20048;-74
2021/03/13 17:15:14;;;;;;;1173.60;812.67;;;17.20;56.70;;;;;;5016446;28;20060;-75
2021/03/13 17:17:40;;;;;;;898.20;687.10;;;17.20;56.70;;;;;;4999295;28;20028;-76
2021/03/13 17:20:07;;;;;;;750.78;597.97;;;17.20;56.90;;;;;;5024804;28;20111;-74
2021/03/13 17:22:32;;;;;;;625.47;514.80;;;17.30;56.80;;;;;;5034912;28;20383;-74
2021/03/13 17:45:42;;;;;;;428.77;324.70;;;17.80;55.80;;;;;;5849109;22;20226;-76
2021/03/13 17:48:08;;;;;;;419.92;316.15;;;17.90;55.00;;;;;;5037542;28;20033;-78
2021/03/13 17:53:09;;;;;;;398.73;297.60;;;17.90;55.00;;;;;;5985338;22;20046;-75
2021/03/13 17:55:35;;;;;;;421.17;310.48;;;17.90;55.00;;;;;;5032360;28;20024;-77
2021/03/13 17:58:11;;;;;;;356.27;265.42;;;17.90;55.00;;;;;;5038335;28;20085;-76
2021/03/13 18:00:37;;;;;;;361.95;269.75;;;18.00;55.30;;;;;;5034329;28;20468;-76
2021/03/13 18:03:03;;;;;;;340.27;252.50;;;18.00;55.20;;;;;;5033944;28;20073;-76
2021/03/13 18:05:28;;;;;;;316.50;232.93;;;18.00;55.00;;;;;;5034004;28;20479;-76
2021/03/13 18:07:54;;;;;;;310.55;233.48;;;17.90;55.00;;;;;;5031532;28;20444;-76
2021/03/13 18:10:21;;;;;;;296.23;219.00;;;17.90;54.90;;;;;;5032571;28;20167;-76
2021/03/13 18:12:46;;;;;;;289.67;212.27;;;18.00;54.80;;;;;;5029210;28;20032;-72
2021/03/13 18:15:12;;;;;;;283.85;208.98;;;18.00;54.90;;;;;;5017023;28;20104;-76
2021/03/13 18:17:38;;;;;;;259.05;194.00;;;17.90;54.90;;;;;;5031288;28;20037;-76
2021/03/13 18:20:04;;;;;;;243.13;183.52;;;18.00;54.70;;;;;;5034659;28;20092;-75
2021/03/13 18:22:31;;;;;;;243.38;178.90;;;18.00;54.70;;;;;;5030234;28;20033;-76
2021/03/13 18:24:56;;;;;;;234.02;171.13;;;18.00;54.70;;;;;;5034404;28;20029;-75
2021/03/13 18:27:22;;;;;;;242.82;170.05;;;18.00;54.70;;;;;;5039389;28;20083;-76
2021/03/13 18:29:48;;;;;;;229.75;161.27;;;18.00;57.40;;;;;;5023646;28;20103;-73
2021/03/13 18:32:14;;;;;;;225.63;162.15;;;18.10;55.20;;;;;;5013922;28;20037;-72
2021/03/13 18:34:40;;;;;;;207.95;153.77;;;18.20;55.10;;;;;;4996406;28;20366;-71
2021/03/13 18:37:06;;;;;;;197.77;142.90;;;18.20;54.80;;;;;;5021559;28;20021;-73
2021/03/13 18:39:31;;;;;;;196.23;137.10;;;18.30;55.20;;;;;;5032396;28;20109;-73
2021/03/13 18:41:58;;;;;;;180.98;128.48;;;18.40;54.80;;;;;;5032043;28;20087;-76
2021/03/13 18:57:41;;;;;;;206.98;128.40;;;18.30;55.10;;;;;;4917623;26;20059;-77
2021/03/13 19:00:14;;;;;;;192.80;121.07;;;18.40;55.00;;;;;;4957220;29;20059;-78
2021/03/13 19:02:41;;;;;;;189.13;118.00;;;18.30;55.10;;;;;;4959014;29;20023;-79
2021/03/13 19:05:08;;;;;;;185.65;113.20;;;18.30;55.20;;;;;;4957903;29;20058;-79
2021/03/13 19:07:33;;;;;;;185.75;111.38;;;18.30;55.30;;;;;;4972566;28;20019;-73
2021/03/13 19:09:59;;;;;;;178.98;111.30;;;18.30;55.60;;;;;;4974546;28;20059;-74
2021/03/13 19:12:26;;;;;;;167.90;108.10;;;18.30;55.50;;;;;;4957376;28;20478;-73
2021/03/13 19:14:52;;;;;;;176.30;107.03;;;18.40;55.70;;;;;;4965362;28;20031;-73
2021/03/13 19:17:18;;;;;;;166.95;111.88;;;18.40;55.60;;;;;;4949650;28;20027;-74
2021/03/13 19:19:44;;;;;;;163.60;104.35;;;18.40;56.00;;;;;;4974532;28;20022;-74
2021/03/13 19:22:12;;;;;;;150.18;96.18;;;18.40;56.20;;;;;;4955888;28;20109;-74
2021/03/13 19:24:37;;;;;;;139.93;91.80;;;18.40;56.70;;;;;;4935549;29;20126;-72
2021/03/13 19:27:03;;;;;;;142.23;89.43;;;18.50;57.40;;;;;;4938205;29;20118;-73
2021/03/13 19:29:29;;;;;;;136.95;92.78;;;18.40;57.80;;;;;;4954849;29;20024;-72
2021/03/13 19:31:55;;;;;;;133.95;89.00;;;18.40;57.40;;;;;;4955046;29;20035;-73
2021/03/13 19:34:21;;;;;;;135.48;89.10;;;18.40;57.50;;;;;;4953193;29;20360;-72
2021/03/13 19:36:49;;;;;;;129.05;83.88;;;18.40;57.60;;;;;;4954868;29;20041;-73
2021/03/13 19:39:15;;;;;;;132.25;92.75;;;18.40;57.80;;;;;;4936323;29;20044;-72
2021/03/13 19:41:41;;;;;;;129.00;89.70;;;18.40;57.50;;;;;;4948767;29;20144;-72
2021/03/13 19:44:06;;;;;;;122.03;86.22;;;18.30;57.40;;;;;;4935939;29;20360;-71
2021/03/13 19:46:33;;;;;;;134.02;92.78;;;18.40;57.30;;;;;;4931435;29;20098;-73
2021/03/13 19:48:58;;;;;;;124.70;85.22;;;18.30;56.80;;;;;;4932779;29;20027;-73
2021/03/13 19:51:24;;;;;;;117.97;86.63;;;18.40;56.80;;;;;;4937610;29;20027;-73
2021/03/13 19:53:50;;;;;;;116.25;83.07;;;18.30;56.90;;;;;;4950207;29;20078;-73
2021/03/13 19:56:15;;;;;;;105.13;77.75;;;18.40;57.00;;;;;;4938688;29;20059;-72
2021/03/13 19:58:41;;;;;;;241.57;188.60;;;18.30;57.20;;;;;;4958553;28;20031;-72
2021/03/13 20:01:08;;;;;;;239.95;193.43;;;18.30;57.10;;;;;;4954437;29;20065;-72
2021/03/13 20:03:34;;;;;;;231.57;190.80;;;18.20;56.70;;;;;;4954547;29;20475;-73
2021/03/13 20:06:00;;;;;;;225.63;179.15;;;18.30;57.00;;;;;;4954484;29;20031;-73
2021/03/13 20:08:26;;;;;;;222.93;176.23;;;18.20;56.80;;;;;;4960263;28;20058;-72
2021/03/13 20:10:52;;;;;;;202.10;161.98;;;18.30;56.60;;;;;;4953570;28;20054;-71
2021/03/13 20:13:18;;;;;;;197.63;156.38;;;18.20;56.70;;;;;;4953829;29;20079;-74
2021/03/13 20:15:43;;;;;;;177.95;139.30;;;18.20;56.60;;;;;;4947521;29;20454;-72
2021/03/13 20:18:10;;;;;;;164.70;130.98;;;18.20;56.50;;;;;;4950765;29;20050;-72
2021/03/13 20:20:37;;;;;;;324.88;257.75;;;18.40;56.70;;;;;;4946554;29;20024;-71
2021/03/13 20:23:03;;;;;;;205.77;162.88;;;18.20;56.70;;;;;;4952849;29;20486;-72